Time;durP1;ratioP1;P1;durP2;ratioP2;P2;SDS_P1;SDS_P2;PMS_P1;PMS_P2;Temp;Humidity;BMP_temperature;BMP_pressure;BME280_temperature;BME280_humidity;BME280_pressure;Samples;Min_cycle;Max_cycle;Signal;HPM_P1;HPM_P2
2023/04/22 00:00:08;;;;;;;15.03;12.47;;;10.70;75.70;;;;;;6036409;23;20480;-89
2023/04/22 00:02:37;;;;;;;16.47;12.80;;;10.70;76.00;;;;;;6022315;23;20030;-90
2023/04/22 00:05:07;;;;;;;15.37;11.73;;;10.70;75.80;;;;;;6036627;23;20073;-89
2023/04/22 00:07:35;;;;;;;14.07;11.73;;;10.70;75.60;;;;;;6029841;23;20035;-90
2023/04/22 00:10:01;;;;;;;13.10;11.47;;;10.60;75.30;;;;;;6036290;23;20030;-90
2023/04/22 00:12:33;;;;;;;12.70;11.40;;;10.60;75.50;;;;;;6027184;23;20086;-90
2023/04/22 00:14:59;;;;;;;14.80;11.10;;;10.60;75.20;;;;;;6013391;23;20346;-90
2023/04/22 00:17:28;;;;;;;12.60;11.00;;;10.60;75.30;;;;;;6029324;23;20026;-90
2023/04/22 00:19:56;;;;;;;12.07;9.33;;;10.60;75.50;;;;;;6036371;23;20026;-91
2023/04/22 00:22:22;;;;;;;10.80;9.70;;;10.50;75.40;;;;;;6047522;22;20033;-90
2023/04/22 00:24:51;;;;;;;11.73;9.00;;;10.50;75.20;;;;;;6035653;23;20023;-89
2023/04/22 00:27:17;;;;;;;11.50;8.13;;;10.50;75.00;;;;;;6007888;23;20036;-90
2023/04/22 00:29:43;;;;;;;8.80;7.90;;;10.40;74.80;;;;;;6036798;23;20054;-90
2023/04/22 00:32:18;;;;;;;10.13;9.13;;;10.40;74.80;;;;;;6031332;22;20022;-89
2023/04/22 00:34:46;;;;;;;9.93;8.10;;;10.30;75.00;;;;;;6036467;23;20019;-90
2023/04/22 00:37:15;;;;;;;10.67;8.27;;;10.30;74.80;;;;;;6053857;23;20445;-90
2023/04/22 00:39:43;;;;;;;11.53;9.73;;;10.30;74.70;;;;;;6060163;23;20023;-90
2023/04/22 00:42:09;;;;;;;9.03;8.13;;;10.20;75.00;;;;;;6021797;23;20023;-90
2023/04/22 00:44:42;;;;;;;11.40;9.70;;;10.20;74.90;;;;;;6036365;23;20023;-89
2023/04/22 00:47:21;;;;;;;;;;;;;;;;;;;;;
2023/04/22 00:49:53;;;;;;;13.60;11.30;;;10.10;74.70;;;;;;6038335;23;20030;-90
2023/04/22 00:52:22;;;;;;;12.37;11.07;;;10.00;75.00;;;;;;6003400;22;20076;-90
2023/04/22 00:54:48;;;;;;;13.47;12.07;;;10.00;75.10;;;;;;6036575;23;20034;-91
2023/04/22 00:57:14;;;;;;;14.43;11.57;;;9.90;75.40;;;;;;6027543;23;20030;-90
2023/04/22 00:59:44;;;;;;;12.13;10.70;;;9.80;75.50;;;;;;6036122;23;20346;-90
2023/04/22 01:02:10;;;;;;;11.77;10.57;;;9.80;75.20;;;;;;6026415;23;20022;-90
2023/04/22 01:04:36;;;;;;;12.90;10.90;;;9.70;75.30;;;;;;6037762;23;20058;-90
2023/04/22 01:07:05;;;;;;;13.10;11.67;;;9.60;75.30;;;;;;6024910;23;20015;-89
2023/04/22 01:09:36;;;;;;;17.67;12.97;;;9.60;75.30;;;;;;6034765;23;20094;-89
2023/04/22 01:12:02;;;;;;;16.67;13.65;;;9.50;75.40;;;;;;6035844;23;20022;-91
2023/04/22 01:14:37;;;;;;;14.30;12.80;;;9.40;75.90;;;;;;6121390;23;20077;-90
2023/04/22 01:17:05;;;;;;;15.70;13.23;;;9.40;75.90;;;;;;6024699;23;20019;-88
2023/04/22 01:19:31;;;;;;;18.00;14.30;;;9.40;75.90;;;;;;6034724;23;20026;-90
2023/04/22 01:22:09;;;;;;;;;;;;;;;;;;;;;
2023/04/22 01:24:43;;;;;;;15.27;13.60;;;9.40;76.10;;;;;;6043794;23;20031;-90
2023/04/22 01:27:10;;;;;;;15.47;12.50;;;9.40;76.00;;;;;;5994560;23;20018;-89
2023/04/22 01:29:37;;;;;;;13.23;11.67;;;9.20;75.80;;;;;;6023071;23;20281;-90
2023/04/22 01:32:03;;;;;;;15.97;12.70;;;9.20;75.80;;;;;;6031396;22;20022;-88
2023/04/22 01:34:32;;;;;;;15.73;12.20;;;9.20;75.70;;;;;;6034838;23;20015;-89
2023/04/22 01:36:58;;;;;;;14.83;11.97;;;9.20;75.70;;;;;;6029877;23;20019;-89
2023/04/22 01:39:29;;;;;;;20.97;16.20;;;9.20;75.70;;;;;;6036125;23;20015;-89
2023/04/22 01:41:57;;;;;;;13.38;11.98;;;9.20;76.30;;;;;;6035854;23;20026;-89
2023/04/22 01:44:25;;;;;;;13.03;10.97;;;9.10;76.10;;;;;;6021040;23;20023;-91
2023/04/22 01:47:09;;;;;;;12.75;10.63;;;9.10;75.80;;;;;;6030523;23;20506;-90
2023/04/22 01:49:39;;;;;;;16.67;13.37;;;9.00;75.70;;;;;;6010027;23;20023;-90
2023/04/22 01:52:05;;;;;;;17.70;13.88;;;9.00;75.80;;;;;;6011749;23;20144;-89
2023/04/22 01:54:32;;;;;;;17.83;14.20;;;9.00;75.80;;;;;;6036783;23;20457;-89
2023/04/22 01:57:12;;;;;;;15.40;13.37;;;9.00;75.90;;;;;;6031154;23;20027;-89
2023/04/22 01:59:41;;;;;;;13.83;12.27;;;9.00;76.00;;;;;;6022513;23;20034;-89
2023/04/22 02:02:09;;;;;;;15.53;12.67;;;9.00;76.00;;;;;;6033598;23;20022;-90
2023/04/22 02:04:38;;;;;;;16.17;13.57;;;8.90;75.70;;;;;;6036595;23;20421;-89
2023/04/22 02:07:06;;;;;;;18.13;14.60;;;8.90;75.90;;;;;;6019745;23;20076;-89
2023/04/22 02:09:34;;;;;;;20.43;16.60;;;8.90;75.90;;;;;;6035932;23;20030;-89
2023/04/22 02:12:00;;;;;;;15.53;13.60;;;8.90;76.30;;;;;;6011588;23;20050;-89
2023/04/22 02:14:29;;;;;;;12.83;11.53;;;8.80;76.20;;;;;;6035183;23;20034;-89
2023/04/22 02:17:01;;;;;;;18.03;13.70;;;8.80;76.10;;;;;;6033666;23;20043;-90
2023/04/22 02:19:29;;;;;;;11.70;10.50;;;8.80;76.20;;;;;;6034124;23;20329;-89
2023/04/22 02:21:55;;;;;;;16.03;12.87;;;8.70;76.20;;;;;;6035006;23;20019;-90
2023/04/22 02:24:21;;;;;;;18.53;14.93;;;8.70;76.20;;;;;;6033822;23;20102;-89
2023/04/22 02:26:57;;;;;;;13.40;10.20;;;8.60;76.30;;;;;;6031925;23;20144;-91
2023/04/22 02:29:25;;;;;;;17.03;14.17;;;8.60;76.10;;;;;;6010794;23;20030;-89
2023/04/22 02:31:51;;;;;;;13.50;12.07;;;8.60;76.20;;;;;;6035799;23;20015;-90
2023/04/22 02:34:17;;;;;;;19.20;15.83;;;8.60;76.20;;;;;;6022262;23;20816;-90
2023/04/22 02:36:45;;;;;;;15.03;13.53;;;8.60;76.30;;;;;;6031217;23;20572;-91
2023/04/22 02:39:11;;;;;;;23.53;19.23;;;8.60;76.40;;;;;;6036293;23;20625;-90
2023/04/22 02:41:37;;;;;;;19.43;17.17;;;8.60;76.60;;;;;;6011929;23;20484;-92
2023/04/22 02:44:13;;;;;;;21.90;18.60;;;8.60;76.70;;;;;;6034159;23;20022;-90
2023/04/22 02:46:39;;;;;;;23.80;19.40;;;8.60;76.50;;;;;;6031070;23;20081;-90
2023/04/22 02:49:07;;;;;;;22.20;19.07;;;8.50;76.50;;;;;;6023043;23;20034;-89
2023/04/22 02:51:35;;;;;;;20.20;17.67;;;8.40;76.40;;;;;;6036684;23;20019;-91
2023/04/22 02:54:07;;;;;;;22.10;17.40;;;8.40;76.60;;;;;;6033752;23;20019;-90
2023/04/22 02:56:36;;;;;;;20.53;16.83;;;8.40;76.70;;;;;;6010125;23;20018;-91
2023/04/22 02:59:04;;;;;;;18.10;15.87;;;8.30;76.70;;;;;;6024270;23;20444;-89
2023/04/22 03:01:30;;;;;;;32.73;15.00;;;8.30;76.70;;;;;;5990311;23;20023;-90
2023/04/22 03:03:56;;;;;;;194.60;20.77;;;8.20;76.70;;;;;;5972569;23;20114;-89
2023/04/22 03:06:25;;;;;;;39.40;13.13;;;8.20;76.60;;;;;;6031643;23;20230;-92
2023/04/22 03:08:51;;;;;;;80.47;19.23;;;8.20;76.70;;;;;;5998894;23;20029;-90
2023/04/22 03:11:19;;;;;;;104.57;19.07;;;8.10;76.60;;;;;;6034841;23;20027;-90
2023/04/22 03:13:51;;;;;;;25.97;16.20;;;8.10;77.00;;;;;;6033519;23;20019;-90
2023/04/22 03:16:16;;;;;;;20.13;16.25;;;8.00;77.00;;;;;;6031753;23;20027;-92
2023/04/22 03:18:42;;;;;;;22.67;17.03;;;8.00;77.20;;;;;;6029942;23;20034;-90
2023/04/22 03:21:11;;;;;;;134.33;24.10;;;8.00;77.30;;;;;;6035852;23;20046;-89
2023/04/22 03:23:42;;;;;;;15.20;11.40;;;7.90;77.30;;;;;;6032855;23;20030;-89
2023/04/22 03:26:12;;;;;;;13.30;10.30;;;7.80;77.10;;;;;;6035122;23;20019;-90
2023/04/22 03:28:39;;;;;;;13.93;11.90;;;7.80;76.90;;;;;;6006087;23;20501;-90
2023/04/22 03:31:08;;;;;;;14.63;12.90;;;7.70;76.90;;;;;;6036529;23;20149;-89
2023/04/22 03:33:33;;;;;;;13.93;11.30;;;7.60;77.00;;;;;;6024626;23;20035;-90
2023/04/22 03:35:59;;;;;;;13.40;11.73;;;7.50;76.90;;;;;;6011800;23;20026;-89
2023/04/22 03:38:26;;;;;;;10.43;9.00;;;7.50;77.00;;;;;;6030059;23;20361;-90
2023/04/22 03:40:54;;;;;;;13.33;11.20;;;7.50;76.90;;;;;;6036177;23;20023;-90
2023/04/22 03:43:23;;;;;;;9.40;8.47;;;7.40;77.00;;;;;;6010142;23;20457;-89
2023/04/22 03:45:50;;;;;;;8.93;7.60;;;7.40;77.00;;;;;;6034693;23;20023;-89
2023/04/22 03:48:22;;;;;;;19.97;16.50;;;7.30;76.80;;;;;;6027686;23;20019;-93
2023/04/22 03:50:48;;;;;;;12.80;11.43;;;7.20;77.20;;;;;;6012277;23;20019;-89
2023/04/22 03:53:17;;;;;;;14.77;11.77;;;7.30;77.00;;;;;;6006496;23;20053;-92
2023/04/22 03:55:51;;;;;;;12.40;11.10;;;7.20;76.90;;;;;;6027833;23;20015;-92
2023/04/22 03:58:17;;;;;;;13.60;12.10;;;7.20;76.90;;;;;;6019490;23;20031;-90
2023/04/22 04:00:43;;;;;;;13.97;12.40;;;7.20;76.80;;;;;;6034776;23;20019;-87
2023/04/22 04:03:12;;;;;;;12.20;10.93;;;7.20;76.90;;;;;;6032927;23;20035;-88
2023/04/22 04:05:38;;;;;;;12.63;10.20;;;7.10;76.90;;;;;;6035360;23;20094;-88
2023/04/22 04:08:04;;;;;;;11.60;10.40;;;7.00;76.90;;;;;;6026713;23;20058;-90
2023/04/22 04:10:29;;;;;;;11.97;10.63;;;7.00;76.90;;;;;;6034873;23;20345;-89
2023/04/22 04:12:58;;;;;;;21.27;16.03;;;7.00;76.80;;;;;;6032242;23;20029;-88
2023/04/22 04:15:24;;;;;;;12.53;9.80;;;7.00;76.80;;;;;;6034750;23;20015;-89
2023/04/22 04:17:54;;;;;;;14.57;12.87;;;6.90;76.90;;;;;;5980932;23;20322;-89
2023/04/22 04:20:21;;;;;;;14.23;12.23;;;6.90;76.90;;;;;;6010254;23;20030;-89
2023/04/22 04:22:49;;;;;;;21.67;17.73;;;6.90;76.90;;;;;;6021187;23;20027;-89
2023/04/22 04:25:19;;;;;;;17.60;14.27;;;6.80;76.90;;;;;;6036023;23;20073;-88
2023/04/22 04:27:46;;;;;;;18.07;14.23;;;6.80;76.80;;;;;;6028788;23;20465;-89
2023/04/22 04:30:21;;;;;;;19.63;16.17;;;6.80;76.80;;;;;;6035751;23;20027;-89
2023/04/22 04:32:49;;;;;;;24.23;16.23;;;6.80;76.70;;;;;;6011585;23;20053;-90
2023/04/22 04:35:19;;;;;;;16.07;14.37;;;6.80;76.90;;;;;;5989072;23;20022;-89
2023/04/22 04:37:47;;;;;;;20.33;17.23;;;6.80;76.80;;;;;;6030633;23;20445;-89
2023/04/22 04:40:13;;;;;;;24.17;20.37;;;6.80;76.90;;;;;;6036847;23;20061;-89
2023/04/22 04:42:42;;;;;;;27.13;23.53;;;6.80;77.10;;;;;;6058302;23;20019;-89
2023/04/22 04:45:11;;;;;;;29.70;22.67;;;6.90;77.20;;;;;;6011290;23;20015;-89
2023/04/22 04:47:39;;;;;;;31.40;23.93;;;7.00;77.50;;;;;;6028490;23;20034;-89
2023/04/22 04:50:06;;;;;;;31.33;22.60;;;7.00;77.90;;;;;;6036349;23;20018;-89
2023/04/22 04:52:36;;;;;;;26.07;21.80;;;7.00;77.80;;;;;;6010812;23;20023;-89
2023/04/22 04:55:02;;;;;;;26.57;19.20;;;7.10;77.50;;;;;;6036764;23;20242;-89
2023/04/22 04:57:28;;;;;;;19.97;17.17;;;7.20;77.50;;;;;;5983101;23;20074;-89
2023/04/22 04:59:57;;;;;;;23.97;18.30;;;7.20;77.40;;;;;;6035710;23;20028;-89
2023/04/22 05:02:25;;;;;;;23.00;19.57;;;7.20;77.40;;;;;;6010402;22;20076;-89
2023/04/22 05:04:53;;;;;;;23.07;19.17;;;7.20;77.50;;;;;;5988669;23;20580;-88
2023/04/22 05:07:21;;;;;;;22.90;19.27;;;7.20;77.60;;;;;;6028422;23;20641;-89
2023/04/22 05:09:47;;;;;;;28.47;21.93;;;7.20;77.40;;;;;;6036052;23;20400;-89
2023/04/22 05:12:15;;;;;;;25.70;20.80;;;7.40;77.50;;;;;;6033774;22;20019;-90
2023/04/22 05:14:48;;;;;;;27.37;21.80;;;7.40;77.60;;;;;;6011932;23;20026;-89
2023/04/22 05:17:14;;;;;;;25.37;21.70;;;7.50;77.90;;;;;;5992222;23;20093;-90
2023/04/22 05:19:40;;;;;;;26.90;20.50;;;7.50;78.20;;;;;;6010730;23;20485;-90
2023/04/22 05:22:09;;;;;;;23.77;20.33;;;7.70;78.10;;;;;;5997332;22;20641;-89
2023/04/22 05:24:35;;;;;;;24.77;20.07;;;7.80;78.00;;;;;;6058105;23;20015;-90
2023/04/22 05:27:03;;;;;;;23.47;20.77;;;7.80;78.00;;;;;;6030110;23;20025;-89
2023/04/22 05:29:31;;;;;;;23.10;20.07;;;7.90;78.00;;;;;;5986444;23;20027;-89
2023/04/22 05:32:02;;;;;;;24.10;21.00;;;8.00;77.90;;;;;;6035066;23;20687;-89
2023/04/22 05:34:28;;;;;;;26.50;21.80;;;8.00;78.10;;;;;;6033538;23;20516;-89
2023/04/22 05:36:56;;;;;;;28.80;23.67;;;8.10;78.10;;;;;;6029337;23;20014;-89
2023/04/22 05:39:22;;;;;;;28.40;22.87;;;8.20;78.10;;;;;;6035574;23;20468;-90
2023/04/22 05:41:51;;;;;;;31.90;23.83;;;8.20;78.20;;;;;;6036018;23;20025;-92
2023/04/22 05:44:19;;;;;;;50.47;36.37;;;8.30;78.50;;;;;;6033634;23;20034;-89
2023/04/22 05:46:46;;;;;;;36.83;30.83;;;8.40;78.40;;;;;;6028546;23;20023;-90
2023/04/22 05:49:16;;;;;;;26.03;22.73;;;8.40;78.30;;;;;;6021814;23;20031;-90
2023/04/22 05:51:42;;;;;;;25.20;22.10;;;8.50;78.40;;;;;;6059806;23;20019;-89
2023/04/22 05:54:10;;;;;;;23.73;20.57;;;8.50;78.30;;;;;;6022278;23;20563;-90
2023/04/22 05:56:41;;;;;;;26.57;19.30;;;8.50;78.10;;;;;;6007865;23;20070;-91
2023/04/22 05:59:07;;;;;;;27.73;22.42;;;8.60;78.00;;;;;;6031987;23;20022;-89
2023/04/22 06:01:35;;;;;;;28.60;21.43;;;8.60;78.00;;;;;;6011265;23;20441;-89
2023/04/22 06:04:00;;;;;;;31.80;24.10;;;8.60;78.20;;;;;;6009947;23;20027;-89
2023/04/22 06:06:27;;;;;;;29.07;23.07;;;8.60;78.10;;;;;;6029808;23;20021;-91
2023/04/22 06:08:52;;;;;;;31.57;24.00;;;8.70;78.20;;;;;;6030657;23;20054;-89
2023/04/22 06:11:19;;;;;;;25.70;20.53;;;8.70;78.20;;;;;;6011532;23;20081;-90
2023/04/22 06:13:44;;;;;;;25.43;21.50;;;8.80;78.10;;;;;;6010251;23;20058;-89
2023/04/22 06:16:10;;;;;;;22.53;19.43;;;8.80;78.10;;;;;;6008932;23;20023;-91
2023/04/22 06:18:38;;;;;;;25.80;19.70;;;8.90;78.10;;;;;;6028544;23;20358;-89
2023/04/22 06:21:07;;;;;;;23.10;20.50;;;8.90;78.10;;;;;;6011995;23;20025;-89
2023/04/22 06:23:33;;;;;;;22.30;18.40;;;9.00;78.10;;;;;;6023133;23;20580;-89
2023/04/22 06:26:05;;;;;;;24.83;20.53;;;9.00;78.20;;;;;;6058931;23;20085;-89
2023/04/22 06:28:30;;;;;;;21.50;18.90;;;9.10;78.20;;;;;;5992909;23;20030;-89
2023/04/22 06:30:56;;;;;;;23.40;18.80;;;9.20;78.10;;;;;;6012045;23;20080;-89
2023/04/22 06:33:27;;;;;;;22.03;18.97;;;9.20;78.10;;;;;;6034049;23;20045;-89
2023/04/22 06:35:53;;;;;;;22.98;19.25;;;9.20;78.10;;;;;;6034700;23;20054;-90
2023/04/22 06:38:22;;;;;;;23.87;20.40;;;9.40;78.20;;;;;;6030230;23;20065;-89
2023/04/22 06:40:48;;;;;;;23.90;20.93;;;9.50;78.30;;;;;;6012223;23;20108;-90
2023/04/22 06:43:17;;;;;;;22.57;19.60;;;9.60;78.40;;;;;;6011318;23;20031;-91
2023/04/22 06:45:49;;;;;;;24.03;20.00;;;9.70;78.20;;;;;;6041012;23;20101;-89
2023/04/22 06:48:15;;;;;;;23.38;19.60;;;9.80;78.20;;;;;;6028903;23;20046;-89
2023/04/22 06:50:41;;;;;;;21.70;18.23;;;9.80;78.30;;;;;;6040759;23;20023;-89
2023/04/22 06:53:09;;;;;;;19.70;16.83;;;10.00;78.20;;;;;;6024148;23;20033;-90
2023/04/22 06:55:41;;;;;;;22.30;17.73;;;10.00;78.10;;;;;;6017123;23;20021;-90
2023/04/22 06:58:07;;;;;;;20.53;18.37;;;10.10;78.10;;;;;;6032282;23;20027;-90
2023/04/22 07:00:33;;;;;;;20.43;17.03;;;10.20;78.10;;;;;;6016512;23;20469;-90
2023/04/22 07:03:02;;;;;;;19.77;16.90;;;10.20;78.10;;;;;;6026734;23;20514;-90
2023/04/22 07:05:28;;;;;;;19.20;16.17;;;10.30;77.90;;;;;;6040048;23;20422;-89
2023/04/22 07:08:01;;;;;;;19.73;16.50;;;10.30;77.80;;;;;;6006226;23;20110;-89
2023/04/22 07:10:27;;;;;;;19.17;17.03;;;10.40;77.80;;;;;;6040390;23;20018;-90
2023/04/22 07:12:53;;;;;;;18.60;15.53;;;10.40;77.80;;;;;;6023489;23;20377;-89
2023/04/22 07:15:24;;;;;;;18.17;16.27;;;10.50;77.70;;;;;;6017058;23;20061;-90
2023/04/22 07:17:51;;;;;;;16.98;15.15;;;10.50;77.70;;;;;;6017598;23;20018;-90
2023/04/22 07:20:25;;;;;;;18.50;16.40;;;10.60;77.60;;;;;;6042411;23;20029;-89
2023/04/22 07:22:51;;;;;;;19.53;16.90;;;10.70;77.50;;;;;;6037136;23;20089;-89
2023/04/22 07:25:17;;;;;;;18.00;16.20;;;10.70;77.60;;;;;;6040546;23;20022;-89
2023/04/22 07:27:43;;;;;;;16.50;14.80;;;10.80;77.60;;;;;;6031316;23;20022;-90
2023/04/22 07:30:18;;;;;;;18.23;16.23;;;10.80;77.50;;;;;;6017829;23;20039;-89
2023/04/22 07:32:44;;;;;;;17.48;15.68;;;10.90;77.30;;;;;;6038366;23;20029;-90
2023/04/22 07:35:16;;;;;;;18.75;15.98;;;10.90;77.50;;;;;;6038852;23;20026;-90
2023/04/22 07:37:49;;;;;;;17.23;14.20;;;11.00;77.30;;;;;;6031777;23;20613;-92
2023/04/22 07:40:17;;;;;;;17.25;14.48;;;11.10;76.90;;;;;;6040299;23;20369;-90
2023/04/22 07:42:45;;;;;;;17.15;15.32;;;11.10;76.90;;;;;;6037677;23;20025;-89
2023/04/22 07:45:17;;;;;;;17.48;15.50;;;11.10;77.00;;;;;;6039278;23;20018;-90
2023/04/22 07:47:45;;;;;;;;;;;11.30;77.10;;;;;;6000248;23;20682;-89
2023/04/22 07:50:11;;;;;;;16.05;14.20;;;11.40;77.30;;;;;;6039039;23;19983;-90
2023/04/22 07:52:41;;;;;;;14.90;13.40;;;11.50;77.10;;;;;;6023944;23;20050;-91
2023/04/22 07:55:19;;;;;;;15.98;14.30;;;11.60;76.70;;;;;;6038104;23;20022;-91
2023/04/22 07:57:45;;;;;;;16.10;13.90;;;11.70;76.80;;;;;;6021812;23;20027;-91
2023/04/22 08:00:14;;;;;;;15.63;13.70;;;11.80;76.40;;;;;;6041162;23;20022;-91
2023/04/22 08:02:43;;;;;;;15.95;14.25;;;11.90;76.10;;;;;;6025265;23;20468;-90
2023/04/22 08:05:11;;;;;;;13.50;12.10;;;11.90;76.00;;;;;;6041199;23;20380;-92
2023/04/22 08:07:40;;;;;;;13.73;12.25;;;12.00;76.00;;;;;;6033523;23;20836;-90
2023/04/22 08:10:09;;;;;;;14.35;12.93;;;12.10;75.90;;;;;;6040976;23;20033;-90
2023/04/22 08:12:37;;;;;;;14.13;12.25;;;12.20;75.80;;;;;;6001973;23;20019;-91
2023/04/22 08:15:06;;;;;;;13.65;12.15;;;12.30;75.70;;;;;;5994753;23;20022;-90
2023/04/22 08:17:38;;;;;;;12.98;11.55;;;12.40;75.70;;;;;;6018780;23;20023;-91
2023/04/22 08:20:07;;;;;;;;;;;12.50;75.40;;;;;;6017683;23;20022;-91
2023/04/22 08:22:37;;;;;;;15.68;11.70;;;12.50;74.60;;;;;;6027315;23;19921;-91
2023/04/22 08:25:06;;;;;;;13.50;11.68;;;12.70;75.10;;;;;;6018083;23;20014;-91
2023/04/22 08:27:43;;;;;;;12.55;11.27;;;12.80;75.10;;;;;;5999087;23;20097;-91
2023/04/22 08:30:15;;;;;;;13.73;11.30;;;13.00;74.60;;;;;;6041293;23;20054;-91
2023/04/22 08:32:52;;;;;;;12.05;10.85;;;13.10;74.10;;;;;;6016524;23;20022;-91
2023/04/22 08:35:28;;;;;;;13.75;11.10;;;13.30;74.20;;;;;;6067334;23;20019;-92
2023/04/22 08:38:14;;;;;;;11.50;10.40;;;13.50;73.90;;;;;;6035328;23;20026;-94
2023/04/22 08:41:04;;;;;;;;;;;;;;;;;;;;;
2023/04/22 08:43:38;;;;;;;12.18;10.40;;;13.90;72.70;;;;;;6034164;23;20042;-92
2023/04/22 08:46:20;;;;;;;12.43;10.50;;;14.00;72.80;;;;;;6037629;23;20022;-92
2023/04/22 08:48:52;;;;;;;12.27;10.95;;;14.10;72.90;;;;;;6018635;23;20031;-93
2023/04/22 08:51:27;;;;;;;13.73;11.55;;;14.30;72.00;;;;;;6038793;23;20019;-91
2023/04/22 08:57:44;;;;;;;13.90;11.90;;;14.50;72.20;;;;;;5972729;23;20063;-92
2023/04/22 09:00:41;;;;;;;13.38;11.85;;;14.80;72.20;;;;;;5977845;23;20107;-91
2023/04/22 09:03:15;;;;;;;13.43;11.05;;;15.00;71.80;;;;;;5950174;23;20059;-92
2023/04/22 09:05:47;;;;;;;13.13;10.68;;;15.40;71.60;;;;;;5953177;23;20015;-90
2023/04/22 09:08:25;;;;;;;13.00;11.18;;;15.40;69.80;;;;;;5969158;23;20075;-91
2023/04/22 09:10:57;;;;;;;11.60;10.43;;;15.40;69.00;;;;;;5977868;23;20055;-91
2023/04/22 09:13:25;;;;;;;;;;;15.30;69.70;;;;;;5932398;23;20027;-92
2023/04/22 09:15:51;;;;;;;15.73;12.73;;;15.30;68.90;;;;;;6012206;23;19925;-90
2023/04/22 09:18:38;;;;;;;11.60;10.32;;;15.20;70.00;;;;;;5994302;23;20033;-90
2023/04/22 09:21:31;;;;;;;11.93;10.73;;;15.50;69.80;;;;;;6035231;23;20030;-90
2023/04/22 09:24:09;;;;;;;12.48;11.18;;;16.10;69.00;;;;;;6025001;23;20054;-90
2023/04/22 09:29:51;;;;;;;12.90;11.60;;;17.10;67.30;;;;;;6021166;23;20374;-90
2023/04/22 09:32:29;;;;;;;14.32;12.73;;;17.20;67.80;;;;;;5980516;22;20023;-90
2023/04/22 09:34:58;;;;;;;14.10;12.18;;;17.20;66.70;;;;;;6007266;23;20023;-93
2023/04/22 09:37:36;;;;;;;16.52;12.43;;;17.00;67.40;;;;;;6002660;23;20438;-90
2023/04/22 09:40:06;;;;;;;13.13;11.63;;;17.00;67.40;;;;;;6007316;23;20016;-92
2023/04/22 09:43:00;;;;;;;12.98;11.52;;;16.90;67.80;;;;;;5971482;23;20026;-91
2023/04/22 09:49:14;;;;;;;12.48;10.48;;;16.50;66.80;;;;;;6010514;23;20469;-91
2023/04/22 09:51:50;;;;;;;13.73;11.80;;;16.40;67.10;;;;;;6009582;23;20027;-89
2023/04/22 10:00:27;;;;;;;;;;;;;;;;;;;;;
2023/04/22 10:03:04;;;;;;;13.07;10.80;;;16.20;68.40;;;;;;6020697;23;20109;-91
2023/04/22 10:05:36;;;;;;;13.35;11.35;;;16.10;68.60;;;;;;6036306;23;20337;-91
2023/04/22 10:08:15;;;;;;;12.27;10.98;;;16.20;68.80;;;;;;5993263;23;20061;-91
2023/04/22 10:10:41;;;;;;;11.35;10.15;;;16.30;68.50;;;;;;6026991;23;20041;-91
2023/04/22 10:13:29;;;;;;;12.65;10.48;;;16.50;68.00;;;;;;6024822;23;20022;-91
2023/04/22 10:16:01;;;;;;;11.40;10.20;;;16.60;67.90;;;;;;6036628;23;20026;-93
2023/04/22 10:18:44;;;;;;;;;;;;;;;;;;;;;
2023/04/22 10:21:27;;;;;;;12.90;10.70;;;17.10;67.60;;;;;;6058942;23;20083;-92
2023/04/22 10:24:12;;;;;;;;;;;;;;;;;;;;;
2023/04/22 10:26:58;;;;;;;10.50;9.40;;;17.40;67.60;;;;;;6053661;23;20011;-92
2023/04/22 10:29:43;;;;;;;11.07;9.60;;;17.50;67.00;;;;;;5993247;23;20037;-90
2023/04/22 10:32:23;;;;;;;;;;;17.50;66.00;;;;;;6021221;22;20912;-91
2023/04/22 10:35:13;;;;;;;11.30;8.25;;;17.60;64.30;;;;;;6059691;23;19922;-92
2023/04/22 10:37:47;;;;;;;10.35;8.10;;;17.70;62.80;;;;;;5964980;23;20088;-92
2023/04/22 10:40:16;;;;;;;10.45;8.45;;;17.60;64.70;;;;;;6013446;23;20023;-91
2023/04/22 10:43:06;;;;;;;8.57;7.68;;;17.70;65.20;;;;;;6008907;23;20132;-92
2023/04/22 10:45:53;;;;;;;10.13;8.70;;;17.80;64.50;;;;;;6019627;23;20018;-91
2023/04/22 10:49:09;;;;;;;;;;;;;;;;;;;;;
2023/04/22 10:51:53;;;;;;;10.65;8.68;;;18.00;64.00;;;;;;6078174;23;20721;-93
2023/04/22 10:54:37;;;;;;;11.75;7.95;;;18.10;65.20;;;;;;6009570;23;20022;-92
2023/04/22 10:57:18;;;;;;;9.82;7.18;;;18.20;63.70;;;;;;6005806;23;20230;-92
2023/04/22 10:59:51;;;;;;;10.77;7.13;;;18.30;64.40;;;;;;6037548;23;20023;-92
2023/04/22 11:02:21;;;;;;;10.65;8.80;;;18.40;64.20;;;;;;6022171;22;20030;-90
2023/04/22 11:05:10;;;;;;;13.13;8.52;;;18.40;64.30;;;;;;6037822;23;20015;-92
2023/04/22 11:08:11;;;;;;;;;;;;;;;;;;;;;
2023/04/22 11:13:42;;;;;;;7.97;6.78;;;18.70;63.80;;;;;;6046402;23;20022;-92
2023/04/22 11:16:31;;;;;;;8.37;6.93;;;18.90;63.70;;;;;;6037096;23;20025;-94
2023/04/22 11:18:58;;;;;;;9.52;6.82;;;19.00;63.70;;;;;;6037533;23;20097;-91
2023/04/22 11:21:40;;;;;;;10.18;6.80;;;19.10;63.40;;;;;;6036837;23;20033;-91
2023/04/22 11:24:49;;;;;;;16.77;7.65;;;19.30;62.30;;;;;;6032939;23;20031;-92
2023/04/22 11:27:17;;;;;;;9.57;6.45;;;19.30;62.70;;;;;;6024911;23;20037;-90
2023/04/22 11:29:44;;;;;;;16.33;7.63;;;19.30;62.30;;;;;;6035356;23;20019;-91
2023/04/22 11:32:10;;;;;;;10.93;7.22;;;19.30;62.30;;;;;;5997789;22;20019;-89
2023/04/22 11:34:39;;;;;;;9.65;8.07;;;19.40;61.90;;;;;;6013179;23;20015;-92
2023/04/22 11:37:28;;;;;;;9.27;7.57;;;19.50;61.90;;;;;;6027295;23;20661;-91
2023/04/22 11:40:00;;;;;;;;;;;19.50;60.90;;;;;;6038448;23;20461;-93
2023/04/22 11:42:31;;;;;;;9.02;7.40;;;19.50;61.40;;;;;;5996699;23;20537;-93
2023/04/22 11:49:35;;;;;;;;;;;;;;;;;;;;;
2023/04/22 12:00:42;;;;;;;;;;;;;;;;;;;;;
2023/04/22 12:04:02;;;;;;;10.73;8.45;;;19.50;61.80;;;;;;6045990;23;20051;-92
2023/04/22 12:11:17;;;;;;;;;;;;;;;;;;;;;
2023/04/22 12:40:25;;;;;;;7.40;6.22;;;18.50;64.10;;;;;;6311282;22;20633;-91
2023/04/22 12:43:10;;;;;;;8.05;6.55;;;18.50;63.10;;;;;;6268626;22;20016;-90
2023/04/22 12:45:38;;;;;;;6.43;5.82;;;18.60;63.00;;;;;;6174720;23;20019;-90
2023/04/22 12:48:43;;;;;;;7.70;6.45;;;18.70;62.90;;;;;;6168084;23;20088;-92
2023/04/22 12:51:23;;;;;;;7.20;6.38;;;18.70;61.40;;;;;;6193430;23;20020;-91
2023/04/22 12:54:26;;;;;;;7.30;6.10;;;18.70;62.10;;;;;;6183450;23;20178;-91
2023/04/22 12:56:52;;;;;;;9.35;6.32;;;18.70;62.90;;;;;;6191119;23;20012;-90
2023/04/22 12:59:29;;;;;;;10.32;6.47;;;18.70;62.80;;;;;;6182605;23;20103;-92
2023/04/22 13:02:38;;;;;;;9.75;6.22;;;18.70;62.80;;;;;;6182115;23;20895;-89
2023/04/22 13:08:53;;;;;;;16.20;12.05;;;18.40;62.30;;;;;;6009525;23;20022;-92
2023/04/22 13:11:23;;;;;;;8.45;6.72;;;18.40;63.20;;;;;;6187867;23;20526;-90
2023/04/22 13:13:50;;;;;;;10.07;6.93;;;18.30;62.80;;;;;;6148033;23;20048;-88
2023/04/22 13:16:21;;;;;;;9.25;6.65;;;18.30;62.80;;;;;;6243380;22;20022;-94
2023/04/22 13:19:26;;;;;;;;;;;;;;;;;;;;;
2023/04/22 13:21:58;;;;;;;10.35;6.70;;;18.70;63.20;;;;;;6252410;22;20023;-88
2023/04/22 13:24:26;;;;;;;8.27;7.38;;;19.00;62.70;;;;;;6236345;22;20082;-90
2023/04/22 13:27:15;;;;;;;10.48;7.00;;;19.00;62.20;;;;;;6224237;22;20098;-91
2023/04/22 13:30:06;;;;;;;;;;;;;;;;;;;;;
2023/04/22 13:32:45;;;;;;;;;;;;;;;;;;;;;
2023/04/22 13:35:54;;;;;;;8.98;7.93;;;19.10;62.70;;;;;;6245373;23;20016;-89
2023/04/22 13:38:41;;;;;;;11.18;7.93;;;19.00;62.60;;;;;;6169051;23;20471;-90
2023/04/22 13:41:24;;;;;;;10.15;8.40;;;18.90;62.50;;;;;;6217253;23;20027;-91
2023/04/22 13:43:58;;;;;;;15.00;10.27;;;18.70;62.30;;;;;;6194904;22;20095;-90
2023/04/22 13:46:57;;;;;;;;;;;;;;;;;;;;;
2023/04/22 13:49:49;;;;;;;13.10;8.45;;;18.50;63.20;;;;;;6171897;23;20410;-91
2023/04/22 13:52:29;;;;;;;14.57;10.52;;;18.40;63.60;;;;;;6171713;22;20024;-91
2023/04/22 13:55:29;;;;;;;;;;;;;;;;;;;;;
2023/04/22 13:58:06;;;;;;;9.75;8.38;;;18.20;63.70;;;;;;6180732;23;20024;-91
2023/04/22 14:00:37;;;;;;;12.07;9.18;;;18.10;64.10;;;;;;6198461;22;20015;-88
2023/04/22 14:03:35;;;;;;;15.15;11.05;;;18.00;64.20;;;;;;6223009;22;20104;-90
2023/04/22 14:06:07;;;;;;;17.30;10.02;;;18.00;65.50;;;;;;6216911;23;20020;-90
2023/04/22 14:08:33;;;;;;;19.83;15.13;;;17.80;64.90;;;;;;6181665;23;20378;-90
2023/04/22 14:10:59;;;;;;;18.38;13.52;;;17.60;65.20;;;;;;6210687;23;20016;-89
2023/04/22 14:13:31;;;;;;;21.20;17.25;;;17.50;65.40;;;;;;6239606;23;20028;-90
2023/04/22 14:16:25;;;;;;;19.50;15.35;;;17.50;65.70;;;;;;6242802;23;20427;-91
2023/04/22 14:18:54;;;;;;;18.77;15.45;;;17.30;66.40;;;;;;6148361;23;20055;-90
2023/04/22 14:21:55;;;;;;;21.13;13.73;;;17.10;67.10;;;;;;6159755;23;20034;-91
2023/04/22 14:24:27;;;;;;;18.37;15.53;;;17.00;67.80;;;;;;6084756;23;20022;-95
2023/04/22 14:27:14;;;;;;;20.15;15.40;;;16.60;69.50;;;;;;6125063;23;20024;-91
2023/04/22 14:29:44;;;;;;;17.75;15.35;;;16.30;70.40;;;;;;6133415;23;20024;-90